sensor_id;sensor_type;location;lat;lon;timestamp;temperature;humidity
48860;DHT22;34679;51.436;-2.518;2022-10-31T00:00:31;13.10;99.90
48860;DHT22;34679;51.436;-2.518;2022-10-31T00:02:56;13.10;99.90
48860;DHT22;34679;51.436;-2.518;2022-10-31T00:05:22;13.20;99.90
48860;DHT22;34679;51.436;-2.518;2022-10-31T00:07:52;13.20;99.90
48860;DHT22;34679;51.436;-2.518;2022-10-31T00:10:17;13.20;99.90
48860;DHT22;34679;51.436;-2.518;2022-10-31T00:12:43;13.30;99.90
48860;DHT22;34679;51.436;-2.518;2022-10-31T00:15:09;13.20;99.90
48860;DHT22;34679;51.436;-2.518;2022-10-31T00:17:35;13.20;99.90
48860;DHT22;34679;51.436;-2.518;2022-10-31T00:20:01;13.20;99.90
48860;DHT22;34679;51.436;-2.518;2022-10-31T00:22:27;13.20;99.90
48860;DHT22;34679;51.436;-2.518;2022-10-31T00:24:53;13.20;99.90
48860;DHT22;34679;51.436;-2.518;2022-10-31T00:27:18;13.20;99.90
48860;DHT22;34679;51.436;-2.518;2022-10-31T00:29:44;13.20;99.90
48860;DHT22;34679;51.436;-2.518;2022-10-31T00:32:10;13.20;99.90
48860;DHT22;34679;51.436;-2.518;2022-10-31T00:34:35;13.10;99.90
48860;DHT22;34679;51.436;-2.518;2022-10-31T00:37:01;13.10;99.90
48860;DHT22;34679;51.436;-2.518;2022-10-31T00:39:26;13.00;99.90
48860;DHT22;34679;51.436;-2.518;2022-10-31T00:41:52;13.00;99.90
48860;DHT22;34679;51.436;-2.518;2022-10-31T00:44:18;12.90;99.90
48860;DHT22;34679;51.436;-2.518;2022-10-31T00:46:43;12.80;99.90
48860;DHT22;34679;51.436;-2.518;2022-10-31T00:49:09;12.80;99.90
48860;DHT22;34679;51.436;-2.518;2022-10-31T00:51:35;12.80;99.90
48860;DHT22;34679;51.436;-2.518;2022-10-31T00:54:00;12.70;99.90
48860;DHT22;34679;51.436;-2.518;2022-10-31T00:56:26;12.60;99.90
48860;DHT22;34679;51.436;-2.518;2022-10-31T00:58:51;12.60;99.90
48860;DHT22;34679;51.436;-2.518;2022-10-31T01:01:17;12.50;99.90
48860;DHT22;34679;51.436;-2.518;2022-10-31T01:03:43;12.60;99.90
48860;DHT22;34679;51.436;-2.518;2022-10-31T01:06:10;12.60;99.90
48860;DHT22;34679;51.436;-2.518;2022-10-31T01:08:37;12.60;99.90
48860;DHT22;34679;51.436;-2.518;2022-10-31T01:11:11;12.60;99.90
48860;DHT22;34679;51.436;-2.518;2022-10-31T01:13:37;12.50;99.90
48860;DHT22;34679;51.436;-2.518;2022-10-31T01:16:05;12.60;99.90
48860;DHT22;34679;51.436;-2.518;2022-10-31T01:18:31;12.60;99.90
48860;DHT22;34679;51.436;-2.518;2022-10-31T01:21:18;12.70;99.90
48860;DHT22;34679;51.436;-2.518;2022-10-31T01:23:44;12.70;99.90
48860;DHT22;34679;51.436;-2.518;2022-10-31T01:26:16;12.60;99.90
48860;DHT22;34679;51.436;-2.518;2022-10-31T01:28:48;12.60;99.90
48860;DHT22;34679;51.436;-2.518;2022-10-31T01:31:15;12.60;99.90
48860;DHT22;34679;51.436;-2.518;2022-10-31T01:33:41;12.50;99.90
48860;DHT22;34679;51.436;-2.518;2022-10-31T01:36:19;12.40;99.90
48860;DHT22;34679;51.436;-2.518;2022-10-31T01:38:49;12.40;99.90
48860;DHT22;34679;51.436;-2.518;2022-10-31T01:41:19;12.40;99.90
48860;DHT22;34679;51.436;-2.518;2022-10-31T01:43:53;12.40;99.90
48860;DHT22;34679;51.436;-2.518;2022-10-31T01:46:32;12.40;99.90
48860;DHT22;34679;51.436;-2.518;2022-10-31T01:49:01;12.40;99.90
48860;DHT22;34679;51.436;-2.518;2022-10-31T01:51:34;12.40;99.90
48860;DHT22;34679;51.436;-2.518;2022-10-31T01:54:05;12.40;99.90
48860;DHT22;34679;51.436;-2.518;2022-10-31T01:56:34;12.40;99.90
48860;DHT22;34679;51.436;-2.518;2022-10-31T01:59:06;12.40;99.90
48860;DHT22;34679;51.436;-2.518;2022-10-31T02:01:32;12.40;99.90
48860;DHT22;34679;51.436;-2.518;2022-10-31T02:03:58;12.50;99.90
48860;DHT22;34679;51.436;-2.518;2022-10-31T02:08:59;12.60;99.90
48860;DHT22;34679;51.436;-2.518;2022-10-31T02:11:27;12.70;99.90
48860;DHT22;34679;51.436;-2.518;2022-10-31T02:13:54;12.80;99.90
48860;DHT22;34679;51.436;-2.518;2022-10-31T02:16:20;12.80;99.90
48860;DHT22;34679;51.436;-2.518;2022-10-31T02:18:46;12.80;99.90
48860;DHT22;34679;51.436;-2.518;2022-10-31T02:21:30;12.90;99.90
48860;DHT22;34679;51.436;-2.518;2022-10-31T02:32:27;12.80;99.90
48860;DHT22;34679;51.436;-2.518;2022-10-31T02:37:49;12.70;99.90
48860;DHT22;34679;51.436;-2.518;2022-10-31T02:40:23;12.80;99.90
48860;DHT22;34679;51.436;-2.518;2022-10-31T02:42:54;12.70;99.90
48860;DHT22;34679;51.436;-2.518;2022-10-31T02:45:55;12.70;99.90
48860;DHT22;34679;51.436;-2.518;2022-10-31T02:48:28;12.70;99.90
48860;DHT22;34679;51.436;-2.518;2022-10-31T02:51:01;12.70;99.90
48860;DHT22;34679;51.436;-2.518;2022-10-31T02:53:32;12.70;99.90
48860;DHT22;34679;51.436;-2.518;2022-10-31T02:56:04;12.70;99.90
48860;DHT22;34679;51.436;-2.518;2022-10-31T02:58:34;12.70;99.90
48860;DHT22;34679;51.436;-2.518;2022-10-31T03:01:24;12.70;99.90
48860;DHT22;34679;51.436;-2.518;2022-10-31T03:06:39;12.70;99.90
48860;DHT22;34679;51.436;-2.518;2022-10-31T03:09:26;12.70;99.90
48860;DHT22;34679;51.436;-2.518;2022-10-31T03:12:07;12.70;99.90
48860;DHT22;34679;51.436;-2.518;2022-10-31T03:17:24;12.70;99.90
48860;DHT22;34679;51.436;-2.518;2022-10-31T03:19:52;12.70;99.90
48860;DHT22;34679;51.436;-2.518;2022-10-31T03:22:24;12.70;99.90
48860;DHT22;34679;51.436;-2.518;2022-10-31T03:24:52;12.70;99.90
48860;DHT22;34679;51.436;-2.518;2022-10-31T03:27:23;12.80;99.90
48860;DHT22;34679;51.436;-2.518;2022-10-31T03:29:52;12.70;99.90
48860;DHT22;34679;51.436;-2.518;2022-10-31T03:32:33;12.60;99.90
48860;DHT22;34679;51.436;-2.518;2022-10-31T03:35:02;12.60;99.90
48860;DHT22;34679;51.436;-2.518;2022-10-31T03:37:32;12.50;99.90
48860;DHT22;34679;51.436;-2.518;2022-10-31T03:40:00;12.50;99.90
48860;DHT22;34679;51.436;-2.518;2022-10-31T03:42:32;12.50;99.90
48860;DHT22;34679;51.436;-2.518;2022-10-31T03:47:37;12.60;99.90
48860;DHT22;34679;51.436;-2.518;2022-10-31T03:50:07;12.50;99.90
48860;DHT22;34679;51.436;-2.518;2022-10-31T03:55:31;12.50;99.90
48860;DHT22;34679;51.436;-2.518;2022-10-31T03:58:02;12.50;99.90
48860;DHT22;34679;51.436;-2.518;2022-10-31T04:00:32;12.50;99.90
48860;DHT22;34679;51.436;-2.518;2022-10-31T04:03:26;12.50;99.90
48860;DHT22;34679;51.436;-2.518;2022-10-31T04:05:53;12.60;99.90
48860;DHT22;34679;51.436;-2.518;2022-10-31T04:08:24;12.50;99.90
48860;DHT22;34679;51.436;-2.518;2022-10-31T04:10:52;12.50;99.90
48860;DHT22;34679;51.436;-2.518;2022-10-31T04:13:24;12.50;99.90
48860;DHT22;34679;51.436;-2.518;2022-10-31T04:15:52;12.50;99.90
48860;DHT22;34679;51.436;-2.518;2022-10-31T04:18:19;12.40;99.90
48860;DHT22;34679;51.436;-2.518;2022-10-31T04:20:47;12.40;99.90
48860;DHT22;34679;51.436;-2.518;2022-10-31T04:23:25;12.40;99.90
48860;DHT22;34679;51.436;-2.518;2022-10-31T04:25:51;12.40;99.90
48860;DHT22;34679;51.436;-2.518;2022-10-31T04:28:18;12.40;99.90
48860;DHT22;34679;51.436;-2.518;2022-10-31T04:30:43;12.50;99.90
48860;DHT22;34679;51.436;-2.518;2022-10-31T04:33:09;12.50;99.90
48860;DHT22;34679;51.436;-2.518;2022-10-31T04:35:35;12.50;99.90
48860;DHT22;34679;51.436;-2.518;2022-10-31T04:38:00;12.60;99.90
48860;DHT22;34679;51.436;-2.518;2022-10-31T04:40:26;12.50;99.90
48860;DHT22;34679;51.436;-2.518;2022-10-31T04:42:52;12.50;99.90
48860;DHT22;34679;51.436;-2.518;2022-10-31T04:45:17;12.50;99.90
48860;DHT22;34679;51.436;-2.518;2022-10-31T04:47:43;12.70;99.90
48860;DHT22;34679;51.436;-2.518;2022-10-31T04:50:09;12.70;99.90
48860;DHT22;34679;51.436;-2.518;2022-10-31T04:52:42;12.70;99.90
48860;DHT22;34679;51.436;-2.518;2022-10-31T04:55:08;12.70;99.90
48860;DHT22;34679;51.436;-2.518;2022-10-31T04:57:45;12.70;99.90
48860;DHT22;34679;51.436;-2.518;2022-10-31T05:00:12;12.70;99.90
48860;DHT22;34679;51.436;-2.518;2022-10-31T05:02:48;12.60;99.90
48860;DHT22;34679;51.436;-2.518;2022-10-31T05:05:16;12.60;99.90
48860;DHT22;34679;51.436;-2.518;2022-10-31T05:07:43;12.60;99.90
48860;DHT22;34679;51.436;-2.518;2022-10-31T05:10:11;12.50;99.90
48860;DHT22;34679;51.436;-2.518;2022-10-31T05:12:38;12.50;99.90
48860;DHT22;34679;51.436;-2.518;2022-10-31T05:15:05;12.40;99.90
48860;DHT22;34679;51.436;-2.518;2022-10-31T05:17:31;12.40;99.90
48860;DHT22;34679;51.436;-2.518;2022-10-31T05:19:57;12.40;99.90
48860;DHT22;34679;51.436;-2.518;2022-10-31T05:22:23;12.30;99.90
48860;DHT22;34679;51.436;-2.518;2022-10-31T05:24:48;12.30;99.90
48860;DHT22;34679;51.436;-2.518;2022-10-31T05:27:14;12.30;99.90
48860;DHT22;34679;51.436;-2.518;2022-10-31T05:29:39;12.30;99.90
48860;DHT22;34679;51.436;-2.518;2022-10-31T05:32:05;12.30;99.90
48860;DHT22;34679;51.436;-2.518;2022-10-31T05:34:31;12.20;99.90
48860;DHT22;34679;51.436;-2.518;2022-10-31T05:36:56;12.10;99.90
48860;DHT22;34679;51.436;-2.518;2022-10-31T05:39:22;12.10;99.90
48860;DHT22;34679;51.436;-2.518;2022-10-31T05:41:48;12.10;99.90
48860;DHT22;34679;51.436;-2.518;2022-10-31T05:44:13;12.10;99.90
48860;DHT22;34679;51.436;-2.518;2022-10-31T05:46:39;12.20;99.90
48860;DHT22;34679;51.436;-2.518;2022-10-31T05:49:05;12.20;99.90
48860;DHT22;34679;51.436;-2.518;2022-10-31T05:51:30;12.30;99.90
48860;DHT22;34679;51.436;-2.518;2022-10-31T05:53:56;12.30;99.90
48860;DHT22;34679;51.436;-2.518;2022-10-31T05:56:21;12.40;99.90
48860;DHT22;34679;51.436;-2.518;2022-10-31T05:58:47;12.40;99.90
48860;DHT22;34679;51.436;-2.518;2022-10-31T06:01:13;12.30;99.90
48860;DHT22;34679;51.436;-2.518;2022-10-31T06:03:38;12.30;99.90
48860;DHT22;34679;51.436;-2.518;2022-10-31T06:06:04;12.40;99.90
48860;DHT22;34679;51.436;-2.518;2022-10-31T06:08:30;12.40;99.90
48860;DHT22;34679;51.436;-2.518;2022-10-31T06:10:55;12.40;99.90
48860;DHT22;34679;51.436;-2.518;2022-10-31T06:13:21;12.40;99.90
48860;DHT22;34679;51.436;-2.518;2022-10-31T06:15:47;12.50;99.90
48860;DHT22;34679;51.436;-2.518;2022-10-31T06:18:12;12.40;99.90
48860;DHT22;34679;51.436;-2.518;2022-10-31T06:20:38;12.50;99.90
48860;DHT22;34679;51.436;-2.518;2022-10-31T06:23:04;12.50;99.90
48860;DHT22;34679;51.436;-2.518;2022-10-31T06:25:30;12.50;99.90
48860;DHT22;34679;51.436;-2.518;2022-10-31T06:27:56;12.50;99.90
48860;DHT22;34679;51.436;-2.518;2022-10-31T06:30:22;12.50;99.90
48860;DHT22;34679;51.436;-2.518;2022-10-31T06:32:48;12.40;99.90
48860;DHT22;34679;51.436;-2.518;2022-10-31T06:35:15;12.40;99.90
48860;DHT22;34679;51.436;-2.518;2022-10-31T06:37:40;12.40;99.90
48860;DHT22;34679;51.436;-2.518;2022-10-31T06:40:06;12.40;99.90
48860;DHT22;34679;51.436;-2.518;2022-10-31T06:42:32;12.40;99.90
48860;DHT22;34679;51.436;-2.518;2022-10-31T06:44:58;12.40;99.90
48860;DHT22;34679;51.436;-2.518;2022-10-31T06:47:23;12.40;99.90
48860;DHT22;34679;51.436;-2.518;2022-10-31T06:49:49;12.40;99.90
48860;DHT22;34679;51.436;-2.518;2022-10-31T06:52:15;12.50;99.90
48860;DHT22;34679;51.436;-2.518;2022-10-31T06:54:41;12.50;99.90
48860;DHT22;34679;51.436;-2.518;2022-10-31T06:57:06;12.50;99.90
48860;DHT22;34679;51.436;-2.518;2022-10-31T06:59:32;12.50;99.90
48860;DHT22;34679;51.436;-2.518;2022-10-31T07:01:58;12.50;99.90
48860;DHT22;34679;51.436;-2.518;2022-10-31T07:04:24;12.40;99.90
48860;DHT22;34679;51.436;-2.518;2022-10-31T07:06:52;12.50;99.90
48860;DHT22;34679;51.436;-2.518;2022-10-31T07:09:18;12.40;99.90
48860;DHT22;34679;51.436;-2.518;2022-10-31T07:11:44;12.50;99.90
48860;DHT22;34679;51.436;-2.518;2022-10-31T07:14:09;12.50;99.90
48860;DHT22;34679;51.436;-2.518;2022-10-31T07:16:35;12.50;99.90
48860;DHT22;34679;51.436;-2.518;2022-10-31T07:19:01;12.40;99.90
48860;DHT22;34679;51.436;-2.518;2022-10-31T07:21:26;12.50;99.90
48860;DHT22;34679;51.436;-2.518;2022-10-31T07:23:52;12.50;99.90
48860;DHT22;34679;51.436;-2.518;2022-10-31T07:26:18;12.50;99.90
48860;DHT22;34679;51.436;-2.518;2022-10-31T07:28:45;12.60;99.90
48860;DHT22;34679;51.436;-2.518;2022-10-31T07:31:11;12.60;99.90
48860;DHT22;34679;51.436;-2.518;2022-10-31T07:33:36;12.60;99.90
48860;DHT22;34679;51.436;-2.518;2022-10-31T07:36:02;12.60;99.90
48860;DHT22;34679;51.436;-2.518;2022-10-31T07:38:28;12.60;99.90
48860;DHT22;34679;51.436;-2.518;2022-10-31T07:40:53;12.60;99.90
48860;DHT22;34679;51.436;-2.518;2022-10-31T07:43:20;12.70;99.90
48860;DHT22;34679;51.436;-2.518;2022-10-31T07:45:52;12.70;99.90
48860;DHT22;34679;51.436;-2.518;2022-10-31T07:48:19;12.90;99.90
48860;DHT22;34679;51.436;-2.518;2022-10-31T07:50:45;13.30;99.90
48860;DHT22;34679;51.436;-2.518;2022-10-31T07:53:12;13.60;99.90
48860;DHT22;34679;51.436;-2.518;2022-10-31T07:55:38;14.00;99.90
48860;DHT22;34679;51.436;-2.518;2022-10-31T08:00:35;14.80;99.90
48860;DHT22;34679;51.436;-2.518;2022-10-31T08:03:06;15.00;99.90
48860;DHT22;34679;51.436;-2.518;2022-10-31T08:05:33;15.40;99.90
48860;DHT22;34679;51.436;-2.518;2022-10-31T08:07:59;15.60;99.90
48860;DHT22;34679;51.436;-2.518;2022-10-31T08:10:26;15.80;99.90
48860;DHT22;34679;51.436;-2.518;2022-10-31T08:13:01;16.00;99.90
48860;DHT22;34679;51.436;-2.518;2022-10-31T08:15:27;16.00;99.90
48860;DHT22;34679;51.436;-2.518;2022-10-31T08:17:53;15.80;99.90
48860;DHT22;34679;51.436;-2.518;2022-10-31T08:20:20;16.00;99.90
48860;DHT22;34679;51.436;-2.518;2022-10-31T08:23:00;16.20;99.90
48860;DHT22;34679;51.436;-2.518;2022-10-31T08:25:27;16.00;99.90
48860;DHT22;34679;51.436;-2.518;2022-10-31T08:27:54;15.80;99.90
48860;DHT22;34679;51.436;-2.518;2022-10-31T08:30:22;15.70;99.90
48860;DHT22;34679;51.436;-2.518;2022-10-31T08:33:09;15.40;99.90
48860;DHT22;34679;51.436;-2.518;2022-10-31T08:35:36;15.40;99.90
48860;DHT22;34679;51.436;-2.518;2022-10-31T08:38:02;15.20;99.90
48860;DHT22;34679;51.436;-2.518;2022-10-31T08:40:30;15.00;99.90
48860;DHT22;34679;51.436;-2.518;2022-10-31T08:43:01;14.90;99.90
48860;DHT22;34679;51.436;-2.518;2022-10-31T08:45:28;15.00;99.90
48860;DHT22;34679;51.436;-2.518;2022-10-31T08:48:02;15.10;99.90
48860;DHT22;34679;51.436;-2.518;2022-10-31T08:50:29;15.30;99.90
48860;DHT22;34679;51.436;-2.518;2022-10-31T08:53:00;15.50;99.90
48860;DHT22;34679;51.436;-2.518;2022-10-31T08:55:26;15.80;99.90
48860;DHT22;34679;51.436;-2.518;2022-10-31T08:57:58;16.00;99.90
48860;DHT22;34679;51.436;-2.518;2022-10-31T09:00:24;16.00;99.90
48860;DHT22;34679;51.436;-2.518;2022-10-31T09:02:58;15.70;99.90
48860;DHT22;34679;51.436;-2.518;2022-10-31T09:05:24;15.50;99.90
48860;DHT22;34679;51.436;-2.518;2022-10-31T09:07:50;15.30;99.90
48860;DHT22;34679;51.436;-2.518;2022-10-31T09:10:16;15.10;99.90
48860;DHT22;34679;51.436;-2.518;2022-10-31T09:12:41;14.90;99.90
48860;DHT22;34679;51.436;-2.518;2022-10-31T09:15:08;14.80;99.90
48860;DHT22;34679;51.436;-2.518;2022-10-31T09:17:33;14.80;99.90
48860;DHT22;34679;51.436;-2.518;2022-10-31T09:19:59;14.80;99.90
48860;DHT22;34679;51.436;-2.518;2022-10-31T09:22:25;14.80;99.90
48860;DHT22;34679;51.436;-2.518;2022-10-31T09:24:50;14.80;99.90
48860;DHT22;34679;51.436;-2.518;2022-10-31T09:27:16;14.90;99.90
48860;DHT22;34679;51.436;-2.518;2022-10-31T09:29:42;14.90;99.90
48860;DHT22;34679;51.436;-2.518;2022-10-31T09:32:07;14.80;99.90
48860;DHT22;34679;51.436;-2.518;2022-10-31T09:34:33;14.80;99.90
48860;DHT22;34679;51.436;-2.518;2022-10-31T09:36:58;14.80;99.90
48860;DHT22;34679;51.436;-2.518;2022-10-31T09:39:24;14.80;99.90
48860;DHT22;34679;51.436;-2.518;2022-10-31T09:55:46;14.70;99.90
48860;DHT22;34679;51.436;-2.518;2022-10-31T09:58:20;14.80;99.90
48860;DHT22;34679;51.436;-2.518;2022-10-31T10:00:47;14.80;99.90
48860;DHT22;34679;51.436;-2.518;2022-10-31T10:08:30;15.10;99.90
48860;DHT22;34679;51.436;-2.518;2022-10-31T10:16:54;15.50;99.90
48860;DHT22;34679;51.436;-2.518;2022-10-31T10:19:47;15.60;99.90
48860;DHT22;34679;51.436;-2.518;2022-10-31T10:28:28;15.60;99.90
48860;DHT22;34679;51.436;-2.518;2022-10-31T10:30:47;15.70;99.90
48860;DHT22;34679;51.436;-2.518;2022-10-31T10:35:59;15.60;99.90
48860;DHT22;34679;51.436;-2.518;2022-10-31T10:41:22;15.70;99.90
48860;DHT22;34679;51.436;-2.518;2022-10-31T10:43:52;15.60;99.90
48860;DHT22;34679;51.436;-2.518;2022-10-31T10:51:51;15.50;99.90
48860;DHT22;34679;51.436;-2.518;2022-10-31T10:57:20;15.50;99.90
48860;DHT22;34679;51.436;-2.518;2022-10-31T10:59:47;15.70;99.90
48860;DHT22;34679;51.436;-2.518;2022-10-31T11:02:22;15.70;99.90
48860;DHT22;34679;51.436;-2.518;2022-10-31T11:04:56;15.80;99.90
48860;DHT22;34679;51.436;-2.518;2022-10-31T11:07:22;15.80;99.90
48860;DHT22;34679;51.436;-2.518;2022-10-31T11:09:48;15.80;99.90
48860;DHT22;34679;51.436;-2.518;2022-10-31T11:12:22;15.90;99.90
48860;DHT22;34679;51.436;-2.518;2022-10-31T11:14:55;15.90;99.90
48860;DHT22;34679;51.436;-2.518;2022-10-31T11:17:29;16.00;99.90
48860;DHT22;34679;51.436;-2.518;2022-10-31T11:22:44;15.90;99.90
48860;DHT22;34679;51.436;-2.518;2022-10-31T11:27:46;16.00;99.90
48860;DHT22;34679;51.436;-2.518;2022-10-31T11:30:13;16.10;99.90
48860;DHT22;34679;51.436;-2.518;2022-10-31T11:32:48;16.10;99.90
48860;DHT22;34679;51.436;-2.518;2022-10-31T11:35:17;16.20;99.90
48860;DHT22;34679;51.436;-2.518;2022-10-31T11:37:45;16.20;99.90
48860;DHT22;34679;51.436;-2.518;2022-10-31T11:40:21;16.20;99.90
48860;DHT22;34679;51.436;-2.518;2022-10-31T11:42:49;16.10;99.90
48860;DHT22;34679;51.436;-2.518;2022-10-31T11:47:51;16.00;99.90
48860;DHT22;34679;51.436;-2.518;2022-10-31T11:50:24;16.00;99.90
48860;DHT22;34679;51.436;-2.518;2022-10-31T11:52:51;15.90;99.90
48860;DHT22;34679;51.436;-2.518;2022-10-31T11:55:38;15.90;99.90
48860;DHT22;34679;51.436;-2.518;2022-10-31T11:58:18;15.90;99.90
48860;DHT22;34679;51.436;-2.518;2022-10-31T12:00:49;15.90;99.90
48860;DHT22;34679;51.436;-2.518;2022-10-31T12:08:18;16.10;99.90
48860;DHT22;34679;51.436;-2.518;2022-10-31T12:11:02;16.10;99.90
48860;DHT22;34679;51.436;-2.518;2022-10-31T12:13:46;16.20;99.90
48860;DHT22;34679;51.436;-2.518;2022-10-31T12:16:24;16.20;99.90
48860;DHT22;34679;51.436;-2.518;2022-10-31T12:21:51;16.40;99.90
48860;DHT22;34679;51.436;-2.518;2022-10-31T12:27:14;16.70;99.90
48860;DHT22;34679;51.436;-2.518;2022-10-31T12:29:59;16.80;99.90
48860;DHT22;34679;51.436;-2.518;2022-10-31T13:00:56;17.00;99.90
48860;DHT22;34679;51.436;-2.518;2022-10-31T13:03:28;17.00;99.90
48860;DHT22;34679;51.436;-2.518;2022-10-31T13:05:59;17.10;99.90
48860;DHT22;34679;51.436;-2.518;2022-10-31T13:08:42;17.10;99.90
48860;DHT22;34679;51.436;-2.518;2022-10-31T13:16:22;16.80;99.90
48860;DHT22;34679;51.436;-2.518;2022-10-31T13:19:20;16.70;99.90
48860;DHT22;34679;51.436;-2.518;2022-10-31T13:27:48;16.30;99.90
48860;DHT22;34679;51.436;-2.518;2022-10-31T13:30:23;16.30;99.90
48860;DHT22;34679;51.436;-2.518;2022-10-31T13:44:03;16.70;99.90
48860;DHT22;34679;51.436;-2.518;2022-10-31T13:46:35;16.80;99.90
48860;DHT22;34679;51.436;-2.518;2022-10-31T13:49:03;16.90;99.90
48860;DHT22;34679;51.436;-2.518;2022-10-31T13:51:34;17.10;99.90
48860;DHT22;34679;51.436;-2.518;2022-10-31T13:54:06;17.00;99.90
48860;DHT22;34679;51.436;-2.518;2022-10-31T13:56:49;17.00;99.90
48860;DHT22;34679;51.436;-2.518;2022-10-31T13:59:19;16.90;99.90
48860;DHT22;34679;51.436;-2.518;2022-10-31T14:01:57;16.90;99.90
48860;DHT22;34679;51.436;-2.518;2022-10-31T14:04:28;16.90;99.90
48860;DHT22;34679;51.436;-2.518;2022-10-31T14:07:06;16.80;99.90
48860;DHT22;34679;51.436;-2.518;2022-10-31T14:09:38;16.80;99.90
48860;DHT22;34679;51.436;-2.518;2022-10-31T14:12:26;16.80;99.90
48860;DHT22;34679;51.436;-2.518;2022-10-31T14:14:56;16.80;99.90
48860;DHT22;34679;51.436;-2.518;2022-10-31T14:17:27;16.80;99.90
48860;DHT22;34679;51.436;-2.518;2022-10-31T14:22:39;16.80;99.90
48860;DHT22;34679;51.436;-2.518;2022-10-31T14:25:31;16.70;99.90
48860;DHT22;34679;51.436;-2.518;2022-10-31T14:27:59;16.70;99.90
48860;DHT22;34679;51.436;-2.518;2022-10-31T14:30:27;16.60;99.90
48860;DHT22;34679;51.436;-2.518;2022-10-31T14:33:09;16.50;99.90
48860;DHT22;34679;51.436;-2.518;2022-10-31T14:35:59;16.50;99.90
48860;DHT22;34679;51.436;-2.518;2022-10-31T14:44:18;16.30;99.90
48860;DHT22;34679;51.436;-2.518;2022-10-31T14:47:20;16.20;99.90
48860;DHT22;34679;51.436;-2.518;2022-10-31T14:50:09;16.10;99.90
48860;DHT22;34679;51.436;-2.518;2022-10-31T14:52:36;16.00;99.90
48860;DHT22;34679;51.436;-2.518;2022-10-31T14:55:06;16.00;99.90
48860;DHT22;34679;51.436;-2.518;2022-10-31T14:57:35;15.80;99.90
48860;DHT22;34679;51.436;-2.518;2022-10-31T15:00:06;15.80;99.90
48860;DHT22;34679;51.436;-2.518;2022-10-31T15:03:18;15.70;99.90
48860;DHT22;34679;51.436;-2.518;2022-10-31T15:05:23;15.60;99.90
48860;DHT22;34679;51.436;-2.518;2022-10-31T15:07:56;15.40;99.90
48860;DHT22;34679;51.436;-2.518;2022-10-31T15:10:26;15.20;99.90
48860;DHT22;34679;51.436;-2.518;2022-10-31T15:12:53;15.10;99.90
48860;DHT22;34679;51.436;-2.518;2022-10-31T15:15:26;14.90;99.90
48860;DHT22;34679;51.436;-2.518;2022-10-31T15:17:59;14.80;99.90
48860;DHT22;34679;51.436;-2.518;2022-10-31T15:20:28;14.80;99.90
48860;DHT22;34679;51.436;-2.518;2022-10-31T15:22:58;14.80;99.90
48860;DHT22;34679;51.436;-2.518;2022-10-31T15:25:28;14.70;99.90
48860;DHT22;34679;51.436;-2.518;2022-10-31T15:27:55;14.70;99.90
48860;DHT22;34679;51.436;-2.518;2022-10-31T15:30:23;14.60;99.90
48860;DHT22;34679;51.436;-2.518;2022-10-31T15:32:50;14.40;99.90
48860;DHT22;34679;51.436;-2.518;2022-10-31T15:35:30;14.20;99.90
48860;DHT22;34679;51.436;-2.518;2022-10-31T15:37:59;14.10;99.90
48860;DHT22;34679;51.436;-2.518;2022-10-31T15:40:27;14.00;99.90
48860;DHT22;34679;51.436;-2.518;2022-10-31T15:45:27;13.90;99.90
48860;DHT22;34679;51.436;-2.518;2022-10-31T15:48:01;13.90;99.90
48860;DHT22;34679;51.436;-2.518;2022-10-31T15:50:32;13.80;99.90
48860;DHT22;34679;51.436;-2.518;2022-10-31T15:53:01;13.70;99.90
48860;DHT22;34679;51.436;-2.518;2022-10-31T16:00:38;13.70;99.90
48860;DHT22;34679;51.436;-2.518;2022-10-31T16:05:59;13.70;99.90
48860;DHT22;34679;51.436;-2.518;2022-10-31T16:08:31;13.80;99.90
48860;DHT22;34679;51.436;-2.518;2022-10-31T16:13:40;13.80;99.90
48860;DHT22;34679;51.436;-2.518;2022-10-31T16:16:15;13.80;99.90
48860;DHT22;34679;51.436;-2.518;2022-10-31T16:18:42;13.90;99.90
48860;DHT22;34679;51.436;-2.518;2022-10-31T16:21:09;13.80;99.90
48860;DHT22;34679;51.436;-2.518;2022-10-31T16:23:36;13.80;99.90
48860;DHT22;34679;51.436;-2.518;2022-10-31T16:26:07;13.80;99.90
48860;DHT22;34679;51.436;-2.518;2022-10-31T16:28:34;13.80;99.90
48860;DHT22;34679;51.436;-2.518;2022-10-31T16:31:01;13.70;99.90
48860;DHT22;34679;51.436;-2.518;2022-10-31T16:33:36;13.70;99.90
48860;DHT22;34679;51.436;-2.518;2022-10-31T16:38:54;13.70;99.90
48860;DHT22;34679;51.436;-2.518;2022-10-31T16:41:20;13.70;99.90
48860;DHT22;34679;51.436;-2.518;2022-10-31T16:43:46;13.70;99.90
48860;DHT22;34679;51.436;-2.518;2022-10-31T16:46:17;13.70;99.90
48860;DHT22;34679;51.436;-2.518;2022-10-31T16:48:43;13.70;99.90
48860;DHT22;34679;51.436;-2.518;2022-10-31T16:51:09;13.70;99.90
48860;DHT22;34679;51.436;-2.518;2022-10-31T16:53:35;13.70;99.90
48860;DHT22;34679;51.436;-2.518;2022-10-31T16:56:03;13.70;99.90
48860;DHT22;34679;51.436;-2.518;2022-10-31T16:58:31;13.70;99.90
48860;DHT22;34679;51.436;-2.518;2022-10-31T17:00:59;13.70;99.90
48860;DHT22;34679;51.436;-2.518;2022-10-31T17:03:25;13.70;99.90
48860;DHT22;34679;51.436;-2.518;2022-10-31T17:05:52;13.70;99.90
48860;DHT22;34679;51.436;-2.518;2022-10-31T17:08:24;13.70;99.90
48860;DHT22;34679;51.436;-2.518;2022-10-31T17:10:54;13.70;99.90
48860;DHT22;34679;51.436;-2.518;2022-10-31T17:13:24;13.70;99.90
48860;DHT22;34679;51.436;-2.518;2022-10-31T17:15:53;13.70;99.90
48860;DHT22;34679;51.436;-2.518;2022-10-31T17:18:20;13.70;99.90
48860;DHT22;34679;51.436;-2.518;2022-10-31T17:20:46;13.80;99.90
48860;DHT22;34679;51.436;-2.518;2022-10-31T17:23:14;13.80;99.90
48860;DHT22;34679;51.436;-2.518;2022-10-31T17:25:41;13.80;99.90
48860;DHT22;34679;51.436;-2.518;2022-10-31T17:28:11;13.70;99.90
48860;DHT22;34679;51.436;-2.518;2022-10-31T17:30:37;13.70;99.90
48860;DHT22;34679;51.436;-2.518;2022-10-31T17:33:03;13.60;99.90
48860;DHT22;34679;51.436;-2.518;2022-10-31T17:35:29;13.60;99.90
48860;DHT22;34679;51.436;-2.518;2022-10-31T17:37:55;13.50;99.90
48860;DHT22;34679;51.436;-2.518;2022-10-31T17:40:21;13.50;99.90
48860;DHT22;34679;51.436;-2.518;2022-10-31T17:42:56;13.50;99.90
48860;DHT22;34679;51.436;-2.518;2022-10-31T17:45:23;13.50;99.90
48860;DHT22;34679;51.436;-2.518;2022-10-31T17:47:50;13.50;99.90
48860;DHT22;34679;51.436;-2.518;2022-10-31T17:50:18;13.40;99.90
48860;DHT22;34679;51.436;-2.518;2022-10-31T17:52:45;13.40;99.90
48860;DHT22;34679;51.436;-2.518;2022-10-31T17:55:11;13.40;99.90
48860;DHT22;34679;51.436;-2.518;2022-10-31T17:57:37;13.40;99.90
48860;DHT22;34679;51.436;-2.518;2022-10-31T18:00:06;13.40;99.90
48860;DHT22;34679;51.436;-2.518;2022-10-31T18:02:32;13.40;99.90
48860;DHT22;34679;51.436;-2.518;2022-10-31T18:04:58;13.50;99.90
48860;DHT22;34679;51.436;-2.518;2022-10-31T18:07:26;13.40;99.90
48860;DHT22;34679;51.436;-2.518;2022-10-31T18:09:52;13.50;99.90
48860;DHT22;34679;51.436;-2.518;2022-10-31T18:12:18;13.40;99.90
48860;DHT22;34679;51.436;-2.518;2022-10-31T18:14:44;13.50;99.90